Time,TemperatureF,DewpointF,PressureIn,WindDirection,WindDirectionDegrees,WindSpeedMPH,WindSpeedGustMPH,Humidity,HourlyPrecipIn,Conditions,Clouds,dailyrainin,SolarRadiationWatts/m^2,SoftwareType,DateUTC
2013-02-01 00:03:00,47.1,37.0,30.18,ESE,102,0.0,2.0,69,0.00,,,0.00,0,weatherlink.com 1.10,2013-02-01 08:03:00,
2013-02-01 00:18:00,47.4,37.0,30.18,ESE,102,0.0,2.0,67,0.00,,,0.00,0,weatherlink.com 1.10,2013-02-01 08:18:00,
2013-02-01 00:33:00,47.0,37.0,30.18,ESE,102,0.0,0.0,68,0.00,,,0.00,0,weatherlink.com 1.10,2013-02-01 08:33:00,
2013-02-01 00:48:00,46.0,36.0,30.18,ESE,102,0.0,0.0,69,0.00,,,0.00,0,weatherlink.com 1.10,2013-02-01 08:48:00,
2013-02-01 01:03:00,44.9,36.0,30.18,ESE,102,0.0,0.0,70,0.00,,,0.00,0,weatherlink.com 1.10,2013-02-01 09:03:00,
2013-02-01 01:18:00,43.8,36.0,30.18,ESE,102,0.0,0.0,73,0.00,,,0.00,0,weatherlink.com 1.10,2013-02-01 09:18:00,
2013-02-01 01:33:00,43.2,35.0,30.18,ESE,102,0.0,0.0,73,0.00,,,0.00,0,weatherlink.com 1.10,2013-02-01 09:33:00,
2013-02-01 01:48:00,42.8,35.0,30.18,ESE,102,0.0,0.0,73,0.00,,,0.00,0,weatherlink.com 1.10,2013-02-01 09:48:00,
2013-02-01 02:03:00,42.5,34.0,30.18,ESE,102,0.0,0.0,73,0.00,,,0.00,0,weatherlink.com 1.10,2013-02-01 10:03:00,
2013-02-01 02:18:00,42.1,34.0,30.18,ESE,102,0.0,0.0,74,0.00,,,0.00,0,weatherlink.com 1.10,2013-02-01 10:18:00,
2013-02-01 02:33:00,41.6,34.0,30.18,ESE,102,0.0,0.0,74,0.00,,,0.00,0,weatherlink.com 1.10,2013-02-01 10:33:00,
2013-02-01 02:48:00,41.2,34.0,30.18,ESE,102,0.0,0.0,75,0.00,,,0.00,0,weatherlink.com 1.10,2013-02-01 10:48:00,
2013-02-01 03:03:00,40.5,33.0,30.18,ESE,102,0.0,0.0,75,0.00,,,0.00,0,weatherlink.com 1.10,2013-02-01 11:03:00,
2013-02-01 03:18:00,40.1,33.0,30.18,ESE,102,0.0,0.0,75,0.00,,,0.00,0,weatherlink.com 1.10,2013-02-01 11:18:00,
2013-02-01 03:33:00,40.2,33.0,30.17,ESE,102,1.0,1.0,75,0.00,,,0.00,0,weatherlink.com 1.10,2013-02-01 11:33:00,
2013-02-01 03:48:00,42.3,32.0,30.17,ESE,104,0.0,3.0,67,0.00,,,0.00,0,weatherlink.com 1.10,2013-02-01 11:48:00,
2013-02-01 04:03:00,44.2,32.0,30.17,ESE,104,0.0,2.0,63,0.00,,,0.00,0,weatherlink.com 1.10,2013-02-01 12:03:00,
2013-02-01 04:18:00,44.5,32.0,30.17,ESE,104,0.0,3.0,61,0.00,,,0.00,0,weatherlink.com 1.10,2013-02-01 12:18:00,
2013-02-01 04:33:00,45.7,31.0,30.17,ESE,104,0.0,3.0,56,0.00,,,0.00,0,weatherlink.com 1.10,2013-02-01 12:33:00,
2013-02-01 04:48:00,46.1,31.0,30.17,ESE,104,0.0,2.0,57,0.00,,,0.00,0,weatherlink.com 1.10,2013-02-01 12:48:00,
2013-02-01 05:03:00,46.2,30.0,30.17,ESE,104,0.0,2.0,54,0.00,,,0.00,0,weatherlink.com 1.10,2013-02-01 13:03:00,
2013-02-01 05:18:00,46.4,31.0,30.17,East,94,0.0,2.0,55,0.00,,,0.00,0,weatherlink.com 1.10,2013-02-01 13:18:00,
2013-02-01 05:33:00,45.8,32.0,30.17,East,87,0.0,0.0,58,0.00,,,0.00,0,weatherlink.com 1.10,2013-02-01 13:33:00,
2013-02-01 05:48:00,44.6,32.0,30.17,East,92,0.0,0.0,61,0.00,,,0.00,0,weatherlink.com 1.10,2013-02-01 13:48:00,
2013-02-01 06:03:00,45.2,30.0,30.18,East,94,1.0,3.0,55,0.00,,,0.00,0,weatherlink.com 1.10,2013-02-01 14:03:00,
2013-02-01 06:18:00,46.5,30.0,30.18,East,94,0.0,2.0,53,0.00,,,0.00,0,weatherlink.com 1.10,2013-02-01 14:18:00,
2013-02-01 06:33:00,47.3,29.0,30.18,East,96,0.0,4.0,50,0.00,,,0.00,0,weatherlink.com 1.10,2013-02-01 14:33:00,
2013-02-01 06:48:00,47.7,29.0,30.18,East,96,2.0,3.0,49,0.00,,,0.00,0,weatherlink.com 1.10,2013-02-01 14:48:00,
2013-02-01 07:03:00,47.9,29.0,30.18,East,101,1.0,2.0,49,0.00,,,0.00,0,weatherlink.com 1.10,2013-02-01 15:03:00,
2013-02-01 07:18:00,46.4,30.0,30.19,ESE,103,0.0,4.0,53,0.00,,,0.00,5,weatherlink.com 1.10,2013-02-01 15:18:00,
2013-02-01 07:33:00,45.2,31.0,30.19,ESE,103,0.0,0.0,58,0.00,,,0.00,7,weatherlink.com 1.10,2013-02-01 15:33:00,
2013-02-01 07:48:00,44.2,30.0,30.20,ESE,103,0.0,0.0,58,0.00,,,0.00,9,weatherlink.com 1.10,2013-02-01 15:48:00,
2013-02-01 08:03:00,43.2,30.0,30.20,ESE,103,0.0,0.0,60,0.00,,,0.00,11,weatherlink.com 1.10,2013-02-01 16:03:00,
2013-02-01 08:18:00,42.5,30.0,30.20,ESE,103,0.0,0.0,62,0.00,,,0.00,19,weatherlink.com 1.10,2013-02-01 16:18:00,
2013-02-01 08:34:00,42.2,30.0,30.21,ESE,103,0.0,0.0,62,0.00,,,0.00,23,weatherlink.com 1.10,2013-02-01 16:34:00,
2013-02-01 08:49:00,42.6,31.0,30.21,ESE,103,0.0,0.0,63,0.00,,,0.00,26,weatherlink.com 1.10,2013-02-01 16:49:00,
2013-02-01 09:04:00,43.8,32.0,30.21,ESE,103,0.0,0.0,63,0.00,,,0.00,32,weatherlink.com 1.10,2013-02-01 17:04:00,
2013-02-01 09:18:00,47.1,34.0,30.21,ESE,103,0.0,0.0,61,0.00,,,0.00,60,weatherlink.com 1.10,2013-02-01 17:18:00,
2013-02-01 09:34:00,53.5,34.0,30.21,ESE,103,0.0,3.0,47,0.00,,,0.00,74,weatherlink.com 1.10,2013-02-01 17:34:00,
2013-02-01 09:49:00,53.9,35.0,30.20,ESE,103,0.0,0.0,49,0.00,,,0.00,86,weatherlink.com 1.10,2013-02-01 17:49:00,
2013-02-01 10:04:00,55.4,35.0,30.20,ESE,103,0.0,0.0,47,0.00,,,0.00,105,weatherlink.com 1.10,2013-02-01 18:04:00,
2013-02-01 10:19:00,57.0,36.0,30.20,ESE,103,0.0,0.0,45,0.00,,,0.00,88,weatherlink.com 1.10,2013-02-01 18:19:00,
2013-02-01 10:34:00,58.9,32.0,30.19,ESE,103,0.0,1.0,37,0.00,,,0.00,246,weatherlink.com 1.10,2013-02-01 18:34:00,
2013-02-01 10:49:00,60.2,34.0,30.19,ESE,104,0.0,2.0,37,0.00,,,0.00,44,weatherlink.com 1.10,2013-02-01 18:49:00,
2013-02-01 11:04:00,60.9,36.0,30.19,ESE,104,0.0,1.0,39,0.00,,,0.00,47,weatherlink.com 1.10,2013-02-01 19:04:00,
2013-02-01 11:19:00,61.2,35.0,30.19,NE,40,0.0,2.0,37,0.00,,,0.00,47,weatherlink.com 1.10,2013-02-01 19:19:00,
2013-02-01 11:34:00,61.5,35.0,30.19,NE,34,0.0,1.0,38,0.00,,,0.00,42,weatherlink.com 1.10,2013-02-01 19:34:00,
2013-02-01 11:49:00,62.0,35.0,30.18,NW,323,0.0,4.0,36,0.00,,,0.00,69,weatherlink.com 1.10,2013-02-01 19:49:00,
2013-02-01 12:05:00,62.9,35.0,30.18,West,276,0.0,3.0,36,0.00,,,0.00,40,weatherlink.com 1.10,2013-02-01 20:05:00,
2013-02-01 12:20:00,62.7,35.0,30.17,NW,310,0.0,2.0,35,0.00,,,0.00,51,weatherlink.com 1.10,2013-02-01 20:20:00,
2013-02-01 12:34:00,63.1,35.0,30.17,SSW,192,4.0,4.0,35,0.00,,,0.00,60,weatherlink.com 1.10,2013-02-01 20:34:00,
2013-02-01 13:04:00,63.4,36.0,30.16,West,277,0.0,1.0,37,0.00,,,0.00,104,weatherlink.com 1.10,2013-02-01 21:04:00,
2013-02-01 13:20:00,64.2,36.0,30.15,NNW,346,0.0,2.0,35,0.00,,,0.00,575,weatherlink.com 1.10,2013-02-01 21:20:00,
2013-02-01 13:35:00,64.7,36.0,30.15,NW,308,0.0,1.0,35,0.00,,,0.00,118,weatherlink.com 1.10,2013-02-01 21:35:00,
2013-02-01 13:50:00,64.0,36.0,30.14,NW,308,0.0,1.0,36,0.00,,,0.00,60,weatherlink.com 1.10,2013-02-01 21:50:00,
2013-02-01 14:05:00,64.0,38.0,30.14,West,269,0.0,3.0,38,0.00,,,0.00,44,weatherlink.com 1.10,2013-02-01 22:05:00,
2013-02-01 14:20:00,63.5,39.0,30.14,North,351,0.0,2.0,40,0.00,,,0.00,76,weatherlink.com 1.10,2013-02-01 22:20:00,
2013-02-01 14:35:00,63.2,38.0,30.13,WNW,298,0.0,2.0,40,0.00,,,0.00,63,weatherlink.com 1.10,2013-02-01 22:35:00,
2013-02-01 14:50:00,62.9,39.0,30.13,NW,306,0.0,2.0,42,0.00,,,0.00,83,weatherlink.com 1.10,2013-02-01 22:50:00,
2013-02-01 15:05:00,62.9,39.0,30.13,North,360,0.0,0.0,41,0.00,,,0.00,58,weatherlink.com 1.10,2013-02-01 23:05:00,
2013-02-01 15:20:00,62.6,39.0,30.13,NNW,335,0.0,0.0,42,0.00,,,0.00,42,weatherlink.com 1.10,2013-02-01 23:20:00,
2013-02-01 15:35:00,61.6,39.0,30.13,NW,306,0.0,2.0,43,0.00,,,0.00,40,weatherlink.com 1.10,2013-02-01 23:35:00,
2013-02-01 15:50:00,61.5,39.0,30.12,NW,306,0.0,0.0,44,0.00,,,0.00,32,weatherlink.com 1.10,2013-02-01 23:50:00,
2013-02-01 16:05:00,60.7,38.0,30.13,NW,316,0.0,2.0,44,0.00,,,0.00,28,weatherlink.com 1.10,2013-02-02 00:05:00,
2013-02-01 16:20:00,60.1,39.0,30.13,WNW,286,0.0,2.0,46,0.00,,,0.00,25,weatherlink.com 1.10,2013-02-02 00:20:00,
2013-02-01 16:36:00,59.2,40.0,30.13,NW,313,0.0,0.0,49,0.00,,,0.00,19,weatherlink.com 1.10,2013-02-02 00:36:00,
2013-02-01 16:50:00,58.3,40.0,30.13,NW,313,0.0,0.0,51,0.00,,,0.00,16,weatherlink.com 1.10,2013-02-02 00:50:00,
2013-02-01 17:05:00,57.5,40.0,30.13,NW,313,0.0,0.0,53,0.00,,,0.00,9,weatherlink.com 1.10,2013-02-02 01:05:00,
2013-02-01 17:20:00,56.5,41.0,30.13,NW,313,0.0,0.0,56,0.00,,,0.00,0,weatherlink.com 1.10,2013-02-02 01:20:00,
2013-02-01 17:35:00,55.6,40.0,30.14,NW,313,0.0,0.0,57,0.00,,,0.00,0,weatherlink.com 1.10,2013-02-02 01:35:00,
2013-02-01 17:50:00,54.8,40.0,30.13,NW,313,0.0,0.0,58,0.00,,,0.00,0,weatherlink.com 1.10,2013-02-02 01:50:00,
2013-02-01 18:05:00,54.7,39.0,30.14,NW,313,0.0,0.0,55,0.00,,,0.00,0,weatherlink.com 1.10,2013-02-02 02:05:00,
2013-02-01 18:20:00,53.9,32.0,30.14,NW,313,0.0,0.0,43,0.00,,,0.00,0,weatherlink.com 1.10,2013-02-02 02:20:00,
2013-02-01 18:35:00,53.8,32.0,30.14,NW,313,0.0,0.0,44,0.00,,,0.00,0,weatherlink.com 1.10,2013-02-02 02:35:00,
2013-02-01 18:50:00,53.6,34.0,30.15,NW,313,0.0,0.0,47,0.00,,,0.00,0,weatherlink.com 1.10,2013-02-02 02:50:00,
2013-02-01 19:05:00,53.6,36.0,30.16,NW,313,0.0,0.0,51,0.00,,,0.00,0,weatherlink.com 1.10,2013-02-02 03:05:00,
2013-02-01 19:20:00,53.1,34.0,30.17,NW,313,0.0,0.0,49,0.00,,,0.00,0,weatherlink.com 1.10,2013-02-02 03:20:00,
2013-02-01 19:35:00,52.9,35.0,30.17,NW,313,0.0,0.0,52,0.00,,,0.00,0,weatherlink.com 1.10,2013-02-02 03:35:00,
2013-02-01 19:50:00,52.8,36.0,30.18,NW,313,0.0,0.0,54,0.00,,,0.00,0,weatherlink.com 1.10,2013-02-02 03:50:00,
2013-02-01 20:05:00,52.3,36.0,30.18,NW,313,0.0,0.0,55,0.00,,,0.00,0,weatherlink.com 1.10,2013-02-02 04:05:00,
2013-02-01 20:20:00,51.9,38.0,30.19,NW,313,0.0,0.0,59,0.00,,,0.00,0,weatherlink.com 1.10,2013-02-02 04:20:00,
2013-02-01 20:35:00,51.4,38.0,30.20,NW,313,0.0,0.0,60,0.00,,,0.00,0,weatherlink.com 1.10,2013-02-02 04:35:00,
2013-02-01 20:50:00,50.7,38.0,30.20,NW,313,0.0,0.0,62,0.00,,,0.00,0,weatherlink.com 1.10,2013-02-02 04:50:00,
2013-02-01 21:05:00,50.1,38.0,30.20,NW,313,0.0,0.0,63,0.00,,,0.00,0,weatherlink.com 1.10,2013-02-02 05:05:00,
2013-02-01 21:20:00,49.2,38.0,30.20,NW,313,0.0,0.0,65,0.00,,,0.00,0,weatherlink.com 1.10,2013-02-02 05:20:00,
2013-02-01 21:35:00,48.5,38.0,30.20,NW,313,0.0,0.0,67,0.00,,,0.00,0,weatherlink.com 1.10,2013-02-02 05:35:00,
2013-02-01 21:50:00,47.9,38.0,30.20,NW,313,0.0,0.0,69,0.00,,,0.00,0,weatherlink.com 1.10,2013-02-02 05:50:00,
2013-02-01 22:05:00,47.6,38.0,30.21,NW,313,2.0,2.0,70,0.00,,,0.00,0,weatherlink.com 1.10,2013-02-02 06:05:00,
2013-02-01 22:20:00,48.5,38.0,30.20,NW,313,0.0,2.0,67,0.00,,,0.00,0,weatherlink.com 1.10,2013-02-02 06:20:00,
2013-02-01 22:35:00,48.5,38.0,30.20,NW,313,0.0,0.0,67,0.00,,,0.00,0,weatherlink.com 1.10,2013-02-02 06:35:00,
2013-02-01 22:50:00,48.0,37.0,30.20,NW,313,0.0,0.0,67,0.00,,,0.00,0,weatherlink.com 1.10,2013-02-02 06:50:00,
2013-02-01 23:05:00,47.4,37.0,30.20,NW,313,0.0,0.0,68,0.00,,,0.00,0,weatherlink.com 1.10,2013-02-02 07:05:00,
2013-02-01 23:21:00,49.1,38.0,30.20,NE,46,1.0,3.0,65,0.00,,,0.00,0,weatherlink.com 1.10,2013-02-02 07:21:00,
2013-02-01 23:35:00,49.8,38.0,30.20,NE,46,0.0,1.0,63,0.00,,,0.00,0,weatherlink.com 1.10,2013-02-02 07:35:00,
2013-02-01 23:50:00,49.2,37.0,30.20,NE,46,0.0,0.0,63,0.00,,,0.00,0,weatherlink.com 1.10,2013-02-02 07:50:00,